Terminal Aerodrome Forecast
Issued by NWS

Home | Current Version | Previous Version | Text Only | Print | Product List | Glossary On
Versions: 1 2 3 4 5 6 7 8 9 10 11 12 13 14 15 16
000
FTUS41 KCAR 070543
TAFPQI
TAF
KPQI 070543Z 0706/0806 18005KT P6SM BKN070
     FM070900 17004KT 3SM BR SCT120
     FM071100 18006KT P6SM SCT120
     FM071700 19012G22KT P6SM BKN250
     FM080400 19010KT P6SM SCT010 BKN015
      AMD LTD TO CLD VIS AND WIND=

USA.gov is the U.S. government's official web portal to all federal, state and local government web resources and services.